Littleton, CO (80122)

7:39 AM MST on March 05, 2015 (GMT -0700)
Forest Park | Change Station
CLOSE
Current Station
Personal Weather Station
Location: Centennial, CO
Elevation: 5610 ft
Nearby Weather Stations

Elev 5610 ft 39.58 °N, 104.96 °W | Updated 14 seconds ago

Clear
Clear
24.1 °F
Feels Like 19 °F
N
4.0
Wind Variable Wind from SW
Gusts 7.0 mph

Today
High -- | Low -- °F
--% Chance of Precip.
Yesterday
High -- | Low -- °F
Precip. -- in
6:27 AM 5:56 PM
Full, 100% visible
Pressure 30.38 in
Visibility 10.0 miles
Clouds Few 13000 ft
Windchill 19 °F
Dew Point 0 °F
Humidity 35%
Rainfall in
Snow Depth Not available.
UV 0 out of 12
Pollen 5.50 out of 12
Air Quality Not available.
Flu Activity Not available.
METAR KAPA 051353Z 20011KT 10SM FEW130 M07/M18 A3015 RMK AO2 SLP285 ACSL DSNT W-NW T10671183

More Conditions Fewer Conditions

Pressure 30.38 in
Visibility 10.0 miles
Clouds Few 13000 ft
Windchill 19 °F
Dew Point 0 °F
Humidity 35%
Rainfall in
Snow Depth Not available.
UV 0 out of 12
Pollen 5.50 out of 12
Air Quality Not available.
Flu Activity Not available.
METAR KAPA 051353Z 20011KT 10SM FEW130 M07/M18 A3015 RMK AO2 SLP285 ACSL DSNT W-NW T10671183

More Conditions Fewer Conditions

10-Day Weather Forecast

Almanac

Astronomy

Mar. 05, 2015 Rise Set
Actual Time
Civil Twilight
Nautical Twilight
Astronomical Twilight
Moon
Length of Visible Light
Length of Day
Tomorrow will be .
, % of the Moon is Illuminated

Today's Extremes

State Highs State Lows

Community

WunderPhotos

Upload Photos

1,802,782 photos uploaded!

WunderBlogs® & News

Nearby

Air Quality

  Air Quality AQ Index Pollutant
Not available.

Snow Depth

Station Depth Elevation

Earthquake Activity

City Distance Mag. Time & Date
Minimum magnitude displayed is 2.5.

Coastal Water Temperatures

Place Temperature

Nearby Weather Stations